KLUL/LUL METAR and TAF weather

Enter ICAO airport designator
Station Type Date Time Source
KLUL METAR 2019/06/17 06:35 UTC NOAA

KLUL 170635Z AUTO 16003KT 10SM CLR 22/21 A2996 RMK A02 T02200212


Station Type Date Time Source
KLUL Decoded METAR 2019/06/17 06:35 UTC NOAA

Station name not available
Jun 17, 2019 - 02:35 AM EDT / 2019.06.17 0635 UTC
Wind: from the SSE (160 degrees) at 3 MPH (3 KT):0
Visibility: 10 mile(s):0
Sky conditions: clear
Temperature: 71.6 F (22.0 C)
Dew Point: 70.2 F (21.2 C)
Relative Humidity: 95%
Pressure (altimeter): 29.96 in. Hg (1014 hPa)
ob: KLUL 170635Z AUTO 16003KT 10SM CLR 22/21 A2996 RMK A02 T02200212
cycle: 6

Station Type Date Time Source
KLUL TAF UTC NOAA

Error!

Example: see airport list